Time;durP1;ratioP1;P1;durP2;ratioP2;P2;SDS_P1;SDS_P2;PMS_P1;PMS_P2;Temp;Humidity;BMP_temperature;BMP_pressure;BME280_temperature;BME280_humidity;BME280_pressure;Samples;Min_cycle;Max_cycle;Signal;HPM_P1;HPM_P2
2021/06/29 00:00:10;;;;;;;6.43;5.28;;;20.30;99.90;;;;;;5088652;28;20016;-78
2021/06/29 00:02:35;;;;;;;6.97;5.80;;;20.30;99.90;;;;;;5088530;28;20024;-79
2021/06/29 00:05:01;;;;;;;6.35;5.30;;;20.20;99.90;;;;;;5088629;28;20509;-79
2021/06/29 00:07:26;;;;;;;7.80;5.70;;;20.30;99.90;;;;;;5088414;28;20024;-79
2021/06/29 00:09:52;;;;;;;6.25;5.35;;;20.30;99.90;;;;;;5088584;28;20031;-78
2021/06/29 00:12:17;;;;;;;6.57;5.25;;;20.20;99.90;;;;;;5088733;28;20569;-79
2021/06/29 00:14:45;;;;;;;6.38;5.60;;;20.20;99.90;;;;;;5088502;28;20050;-78
2021/06/29 00:17:11;;;;;;;8.00;6.00;;;20.20;99.90;;;;;;5088625;28;20054;-79
2021/06/29 00:19:36;;;;;;;8.25;5.72;;;20.20;99.90;;;;;;5088197;28;20619;-78
2021/06/29 00:22:02;;;;;;;8.23;5.70;;;20.20;99.90;;;;;;5088537;28;20137;-79
2021/06/29 00:24:28;;;;;;;6.00;4.93;;;20.20;99.90;;;;;;5088478;28;20020;-79
2021/06/29 00:26:53;;;;;;;5.65;5.05;;;20.10;99.90;;;;;;5088245;28;20174;-79
2021/06/29 00:29:19;;;;;;;7.88;5.65;;;20.10;99.90;;;;;;5088671;28;20263;-79
2021/06/29 00:31:44;;;;;;;7.05;6.18;;;20.10;99.90;;;;;;5088557;28;20035;-79
2021/06/29 00:34:10;;;;;;;7.80;5.47;;;20.00;99.90;;;;;;5088453;28;20023;-79
2021/06/29 00:36:36;;;;;;;7.38;6.00;;;20.10;99.90;;;;;;5088205;28;20486;-79
2021/06/29 00:39:03;;;;;;;11.57;5.93;;;20.00;99.90;;;;;;5088302;28;20074;-79
2021/06/29 00:41:28;;;;;;;6.85;6.07;;;20.00;99.90;;;;;;5088313;28;20021;-78
2021/06/29 00:43:55;;;;;;;6.90;5.50;;;20.00;99.90;;;;;;5088247;28;20081;-78
2021/06/29 00:46:20;;;;;;;12.00;6.00;;;20.00;99.90;;;;;;5088426;28;20031;-79
2021/06/29 00:48:47;;;;;;;9.77;6.07;;;20.00;99.90;;;;;;5087888;28;20032;-79
2021/06/29 00:51:14;;;;;;;8.15;6.10;;;19.90;99.90;;;;;;5088275;28;20503;-78
2021/06/29 00:53:41;;;;;;;7.00;5.90;;;19.90;99.90;;;;;;5087999;28;20552;-78
2021/06/29 00:56:13;;;;;;;6.90;5.90;;;19.90;99.90;;;;;;5088801;28;20028;-79
2021/06/29 00:58:43;;;;;;;6.60;5.75;;;19.80;99.90;;;;;;5091948;28;20563;-78
2021/06/29 01:01:08;;;;;;;9.32;5.88;;;19.80;99.90;;;;;;5092195;28;20036;-78
2021/06/29 01:03:36;;;;;;;6.00;5.40;;;19.80;99.90;;;;;;5091689;28;20021;-78
2021/06/29 01:06:01;;;;;;;10.02;6.38;;;19.70;99.90;;;;;;5091911;28;20051;-78
2021/06/29 01:08:27;;;;;;;7.82;6.22;;;19.70;99.90;;;;;;5091569;28;20068;-78
2021/06/29 01:10:53;;;;;;;7.75;6.65;;;19.60;99.90;;;;;;5091740;28;20032;-78
2021/06/29 01:13:32;;;;;;;9.07;6.72;;;19.60;99.90;;;;;;5091769;28;20032;-78
2021/06/29 01:15:59;;;;;;;10.38;6.13;;;19.60;99.90;;;;;;5091642;28;20054;-78
2021/06/29 01:18:24;;;;;;;8.70;6.15;;;19.60;99.90;;;;;;5091639;28;20020;-78
2021/06/29 01:20:50;;;;;;;8.52;5.88;;;19.60;99.90;;;;;;5091609;28;20047;-78
2021/06/29 01:23:20;;;;;;;7.97;6.25;;;19.60;99.90;;;;;;5091675;28;20027;-78
2021/06/29 01:25:46;;;;;;;7.80;6.05;;;19.70;99.90;;;;;;5091353;28;20024;-78
2021/06/29 01:28:23;;;;;;;6.80;6.05;;;19.60;99.90;;;;;;5084048;28;20043;-78
2021/06/29 01:31:06;;;;;;;7.45;6.07;;;19.70;99.90;;;;;;5071730;28;20282;-78
2021/06/29 01:33:32;;;;;;;7.32;6.25;;;19.60;99.90;;;;;;5091429;28;20066;-78
2021/06/29 01:35:58;;;;;;;8.88;6.07;;;19.70;99.90;;;;;;5091300;28;20028;-78
2021/06/29 01:38:23;;;;;;;6.60;5.85;;;19.70;99.90;;;;;;5091230;28;20024;-79
2021/06/29 01:40:49;;;;;;;7.50;5.95;;;19.70;99.90;;;;;;5091090;28;20024;-78
2021/06/29 01:43:18;;;;;;;7.03;6.05;;;19.70;99.90;;;;;;5091185;28;20518;-79
2021/06/29 01:45:48;;;;;;;7.07;6.22;;;19.70;99.90;;;;;;5091077;28;20059;-78
2021/06/29 01:48:20;;;;;;;7.60;6.20;;;19.60;99.90;;;;;;5091270;28;20478;-79
2021/06/29 01:50:46;;;;;;;8.52;6.18;;;19.60;99.90;;;;;;5090854;28;20027;-78
2021/06/29 01:53:12;;;;;;;7.60;6.43;;;19.60;99.90;;;;;;5091109;28;20024;-78
2021/06/29 01:55:37;;;;;;;6.75;5.70;;;19.60;99.90;;;;;;5090708;28;20035;-79
2021/06/29 01:58:03;;;;;;;9.30;6.70;;;19.60;99.90;;;;;;5090925;28;20111;-79
2021/06/29 02:00:29;;;;;;;7.28;5.95;;;19.60;99.90;;;;;;5090782;28;20502;-79
2021/06/29 02:02:54;;;;;;;6.88;6.18;;;19.60;99.90;;;;;;5090747;28;20998;-78
2021/06/29 02:05:20;;;;;;;7.50;6.65;;;19.60;99.90;;;;;;5090896;28;20027;-79
2021/06/29 02:07:45;;;;;;;13.45;6.82;;;19.60;99.90;;;;;;5090319;28;20044;-78
2021/06/29 02:10:13;;;;;;;7.18;6.45;;;19.60;99.90;;;;;;5090340;28;20051;-79
2021/06/29 02:12:38;;;;;;;7.05;6.32;;;19.60;99.90;;;;;;5090548;28;20478;-78
2021/06/29 02:15:05;;;;;;;7.55;6.75;;;19.50;99.90;;;;;;5090549;28;20028;-79
2021/06/29 02:17:30;;;;;;;7.15;5.90;;;19.50;99.90;;;;;;5086351;28;20678;-78
2021/06/29 02:19:56;;;;;;;8.77;6.28;;;19.50;99.90;;;;;;5079745;28;20036;-78
2021/06/29 02:22:21;;;;;;;7.10;6.40;;;19.40;99.90;;;;;;5090493;28;20094;-78
2021/06/29 02:24:47;;;;;;;8.30;6.47;;;19.40;99.90;;;;;;5089771;28;20418;-78
2021/06/29 02:27:12;;;;;;;8.73;6.43;;;19.40;99.90;;;;;;5090121;28;20035;-78
2021/06/29 02:29:38;;;;;;;7.75;6.35;;;19.40;99.90;;;;;;5090152;28;20107;-78
2021/06/29 02:32:04;;;;;;;8.52;6.50;;;19.30;99.90;;;;;;5090384;28;20024;-78
2021/06/29 02:34:29;;;;;;;11.23;6.85;;;19.30;99.90;;;;;;5090175;28;20110;-78
2021/06/29 02:36:55;;;;;;;8.13;6.65;;;19.30;99.90;;;;;;5090078;28;20044;-78
2021/06/29 02:39:20;;;;;;;7.13;6.32;;;19.30;99.90;;;;;;5090038;28;20040;-79
2021/06/29 02:41:46;;;;;;;9.95;7.38;;;19.50;99.90;;;;;;5090036;28;20023;-79
2021/06/29 02:44:11;;;;;;;8.23;7.03;;;19.50;99.90;;;;;;5090066;28;20044;-78
2021/06/29 02:46:37;;;;;;;8.48;6.13;;;19.50;99.90;;;;;;5090031;28;20016;-78
2021/06/29 02:49:03;;;;;;;7.75;6.70;;;19.50;99.90;;;;;;5089910;28;20077;-79
2021/06/29 02:51:28;;;;;;;9.38;7.68;;;19.50;99.90;;;;;;5089778;28;20024;-79
2021/06/29 02:53:53;;;;;;;8.07;6.90;;;19.60;99.90;;;;;;5089434;28;20319;-79
2021/06/29 02:56:38;;;;;;;7.78;6.30;;;19.60;99.90;;;;;;5089718;28;20024;-79
2021/06/29 02:59:04;;;;;;;8.43;6.93;;;19.60;99.90;;;;;;5090056;28;20035;-79
2021/06/29 03:01:30;;;;;;;8.02;6.45;;;19.70;99.90;;;;;;5089683;28;20043;-78
2021/06/29 03:03:55;;;;;;;7.55;6.75;;;19.70;99.90;;;;;;5089575;28;20427;-79
2021/06/29 03:06:21;;;;;;;8.07;6.95;;;19.70;99.90;;;;;;5089514;28;20020;-79
2021/06/29 03:08:46;;;;;;;7.53;6.68;;;19.80;99.90;;;;;;5089310;28;20560;-79
2021/06/29 03:11:12;;;;;;;7.03;6.32;;;19.80;99.90;;;;;;5089602;28;20024;-79
2021/06/29 03:13:38;;;;;;;7.38;6.68;;;19.80;99.90;;;;;;5089297;28;20016;-79
2021/06/29 03:16:06;;;;;;;8.13;6.75;;;19.90;99.90;;;;;;5089522;28;20031;-79
2021/06/29 03:18:31;;;;;;;7.22;6.47;;;19.90;99.90;;;;;;5089195;28;20024;-79
2021/06/29 03:20:57;;;;;;;8.48;7.57;;;19.90;99.90;;;;;;5088889;28;20065;-79
2021/06/29 03:23:22;;;;;;;12.25;7.25;;;19.90;99.90;;;;;;5089272;28;20035;-79
2021/06/29 03:25:48;;;;;;;9.02;6.82;;;19.90;99.90;;;;;;5089106;28;20016;-79
2021/06/29 03:28:16;;;;;;;9.65;7.30;;;19.90;99.90;;;;;;5089407;28;20428;-79
2021/06/29 03:30:42;;;;;;;10.15;7.50;;;19.90;99.90;;;;;;5089010;28;20020;-79
2021/06/29 03:33:07;;;;;;;9.85;7.80;;;19.90;99.90;;;;;;5077267;28;20035;-79
2021/06/29 03:35:33;;;;;;;11.27;7.75;;;20.00;99.90;;;;;;5089137;28;20031;-79
2021/06/29 03:37:58;;;;;;;10.05;7.45;;;20.00;99.90;;;;;;5088830;28;20028;-79
2021/06/29 03:40:24;;;;;;;12.10;7.50;;;20.00;99.90;;;;;;5088959;28;20382;-79
2021/06/29 03:42:49;;;;;;;11.25;7.63;;;20.00;99.90;;;;;;5089050;28;20027;-79
2021/06/29 03:45:14;;;;;;;8.63;7.32;;;20.00;99.90;;;;;;5089229;28;20024;-79
2021/06/29 03:47:40;;;;;;;9.15;6.97;;;20.10;99.90;;;;;;5088915;28;20498;-79
2021/06/29 03:50:06;;;;;;;11.00;7.13;;;20.10;99.90;;;;;;5088794;28;20024;-79
2021/06/29 03:52:31;;;;;;;11.00;8.10;;;20.20;99.90;;;;;;5088903;28;20027;-79
2021/06/29 03:54:57;;;;;;;11.38;7.38;;;20.20;99.90;;;;;;5088647;28;20035;-79
2021/06/29 03:57:22;;;;;;;10.73;6.65;;;20.20;99.90;;;;;;5087479;28;20035;-79
2021/06/29 03:59:49;;;;;;;9.52;7.85;;;20.30;99.90;;;;;;5088613;28;20016;-79
2021/06/29 04:02:15;;;;;;;11.73;7.55;;;20.30;99.90;;;;;;5088712;28;20062;-79
2021/06/29 04:04:40;;;;;;;10.77;7.80;;;20.30;99.90;;;;;;5088416;28;20503;-79
2021/06/29 04:07:08;;;;;;;9.25;7.68;;;20.40;99.90;;;;;;5088791;28;20046;-79
2021/06/29 04:09:34;;;;;;;11.80;7.30;;;20.40;99.90;;;;;;5088479;28;20165;-79
2021/06/29 04:12:00;;;;;;;10.52;7.65;;;20.40;99.90;;;;;;5088491;28;20020;-79
2021/06/29 04:14:25;;;;;;;9.02;7.35;;;20.50;99.90;;;;;;5088610;28;20028;-79
2021/06/29 04:16:51;;;;;;;10.93;7.55;;;20.50;99.90;;;;;;5088398;28;20107;-79
2021/06/29 04:19:16;;;;;;;8.38;7.43;;;20.60;99.90;;;;;;5088467;28;20032;-79
2021/06/29 04:21:42;;;;;;;9.73;7.53;;;20.60;99.90;;;;;;5088490;28;20539;-79
2021/06/29 04:24:07;;;;;;;11.15;8.00;;;20.70;99.90;;;;;;5088547;28;20116;-79
2021/06/29 04:26:34;;;;;;;9.75;7.78;;;20.80;99.90;;;;;;5088396;28;20027;-79
2021/06/29 04:29:00;;;;;;;12.15;7.90;;;20.80;99.90;;;;;;5087022;28;20414;-79
2021/06/29 04:31:27;;;;;;;8.85;7.95;;;20.90;99.90;;;;;;5089513;28;20290;-79
2021/06/29 04:33:53;;;;;;;11.80;7.65;;;20.90;99.90;;;;;;5092284;28;20028;-79
2021/06/29 04:36:19;;;;;;;11.60;7.82;;;21.00;99.90;;;;;;5092585;28;20024;-79
2021/06/29 04:38:44;;;;;;;11.45;7.65;;;21.10;99.90;;;;;;5092109;28;20024;-79
2021/06/29 04:41:10;;;;;;;9.57;7.57;;;21.20;99.90;;;;;;5092461;28;20417;-79
2021/06/29 04:43:42;;;;;;;10.27;7.75;;;21.30;99.90;;;;;;5092304;28;20071;-79
2021/06/29 04:46:07;;;;;;;9.82;7.43;;;21.40;99.90;;;;;;5092197;28;20070;-79
2021/06/29 04:48:36;;;;;;;9.70;7.90;;;21.50;99.90;;;;;;5092125;28;20024;-79
2021/06/29 04:51:01;;;;;;;10.20;7.82;;;21.60;99.90;;;;;;5092136;28;20433;-79
2021/06/29 04:53:27;;;;;;;10.73;8.05;;;21.60;99.90;;;;;;5092199;28;20107;-79
2021/06/29 04:55:52;;;;;;;10.57;7.95;;;21.70;99.90;;;;;;5092037;28;20028;-79
2021/06/29 04:58:18;;;;;;;9.63;7.88;;;21.80;99.90;;;;;;5091845;28;20055;-79
2021/06/29 05:00:49;;;;;;;8.32;7.05;;;21.90;99.90;;;;;;5092069;28;20563;-79
2021/06/29 05:03:14;;;;;;;;;;;21.90;99.90;;;;;;5092362;28;20058;-79
2021/06/29 05:05:40;;;;;;;10.27;8.25;;;21.90;99.90;;;;;;5092303;28;20331;-78
2021/06/29 05:08:07;;;;;;;8.95;7.75;;;22.00;98.40;;;;;;5091547;28;20406;-79
2021/06/29 05:10:32;;;;;;;8.45;7.30;;;22.00;98.60;;;;;;5091942;28;20054;-78
2021/06/29 05:12:58;;;;;;;10.60;7.43;;;22.00;99.60;;;;;;5091603;28;20059;-78
2021/06/29 05:15:23;;;;;;;9.88;8.10;;;21.90;98.40;;;;;;5091790;28;20052;-78
2021/06/29 05:17:49;;;;;;;8.40;7.40;;;21.90;98.20;;;;;;5091427;28;20028;-78
2021/06/29 05:20:14;;;;;;;8.70;7.70;;;21.90;99.00;;;;;;5091773;28;20024;-78
2021/06/29 05:22:40;;;;;;;9.18;7.80;;;21.90;98.20;;;;;;5091538;28;20046;-78
2021/06/29 05:25:08;;;;;;;12.02;7.53;;;21.90;98.40;;;;;;5091573;28;20132;-78
2021/06/29 05:27:37;;;;;;;11.35;8.07;;;22.00;97.70;;;;;;5091470;28;20446;-79
2021/06/29 05:30:04;;;;;;;10.13;7.50;;;22.00;97.20;;;;;;5091379;28;20088;-78
2021/06/29 05:32:29;;;;;;;10.07;8.15;;;22.00;97.50;;;;;;5091262;28;20081;-78
2021/06/29 05:34:55;;;;;;;8.43;7.53;;;22.10;96.20;;;;;;5091360;28;20063;-79
2021/06/29 05:37:20;;;;;;;13.95;8.80;;;22.20;95.60;;;;;;5091266;28;20028;-78
2021/06/29 05:39:46;;;;;;;8.77;7.53;;;22.20;95.40;;;;;;5091054;28;20676;-78
2021/06/29 05:42:11;;;;;;;14.15;8.13;;;22.30;95.00;;;;;;5090494;28;20092;-78
2021/06/29 05:44:37;;;;;;;12.07;8.00;;;22.30;94.30;;;;;;5091255;28;20115;-78
2021/06/29 05:47:06;;;;;;;9.35;8.05;;;22.40;93.90;;;;;;5090850;28;20113;-79
2021/06/29 05:49:31;;;;;;;10.23;7.93;;;22.40;93.60;;;;;;5091150;28;20081;-79
2021/06/29 05:51:57;;;;;;;10.93;7.50;;;22.50;93.60;;;;;;5091060;28;20115;-79
2021/06/29 05:54:22;;;;;;;10.25;8.20;;;22.50;93.60;;;;;;5091082;28;20016;-78
2021/06/29 05:56:48;;;;;;;9.90;7.43;;;22.40;93.40;;;;;;5090899;28;20020;-79
2021/06/29 05:59:13;;;;;;;10.55;8.27;;;22.40;94.30;;;;;;5090795;28;20032;-78
2021/06/29 06:01:39;;;;;;;9.20;8.05;;;22.40;94.30;;;;;;5090803;28;20050;-79
2021/06/29 06:04:04;;;;;;;12.70;8.32;;;22.40;94.20;;;;;;5090564;28;20093;-79
2021/06/29 06:06:30;;;;;;;11.82;7.97;;;22.40;94.00;;;;;;5090662;28;20107;-78
2021/06/29 06:08:55;;;;;;;9.57;7.53;;;22.40;93.70;;;;;;5090421;28;20395;-79
2021/06/29 06:11:21;;;;;;;12.10;8.90;;;22.50;94.00;;;;;;5090771;28;20030;-79
2021/06/29 06:13:47;;;;;;;9.70;8.10;;;22.50;94.00;;;;;;5090697;28;20055;-79
2021/06/29 06:16:12;;;;;;;13.73;8.25;;;22.60;94.20;;;;;;5090294;28;20039;-79
2021/06/29 06:18:39;;;;;;;13.25;8.73;;;22.80;93.30;;;;;;5090432;28;20028;-78
2021/06/29 06:21:05;;;;;;;13.23;8.60;;;23.00;93.00;;;;;;5090395;28;20020;-79
2021/06/29 06:23:30;;;;;;;12.93;8.10;;;23.20;92.90;;;;;;5090507;28;20031;-78
2021/06/29 06:25:56;;;;;;;13.40;9.18;;;23.40;92.10;;;;;;5090159;28;20020;-79
2021/06/29 06:28:21;;;;;;;14.20;9.23;;;23.50;91.80;;;;;;5090291;28;20065;-79
2021/06/29 06:30:47;;;;;;;13.05;9.00;;;23.60;91.50;;;;;;5090223;28;20032;-78
2021/06/29 06:33:12;;;;;;;13.80;9.43;;;23.70;91.70;;;;;;5090019;28;20357;-78
2021/06/29 06:35:38;;;;;;;13.45;8.80;;;23.70;91.60;;;;;;5090159;28;20115;-78
2021/06/29 06:38:03;;;;;;;11.65;8.73;;;23.80;91.30;;;;;;5089964;28;20052;-79
2021/06/29 06:40:29;;;;;;;12.20;9.30;;;23.90;90.70;;;;;;5090078;28;20028;-78
2021/06/29 06:42:54;;;;;;;13.73;9.30;;;23.90;91.20;;;;;;5090028;28;20509;-79
2021/06/29 06:45:23;;;;;;;16.65;9.45;;;23.90;91.10;;;;;;5089933;28;20065;-79
2021/06/29 06:47:49;;;;;;;13.18;9.40;;;23.90;91.10;;;;;;5089912;28;20024;-79
2021/06/29 06:50:15;;;;;;;13.88;9.75;;;23.90;91.60;;;;;;5089764;28;20040;-79
2021/06/29 06:52:41;;;;;;;11.75;9.90;;;23.80;91.20;;;;;;5089965;28;20043;-78
2021/06/29 06:55:07;;;;;;;11.75;9.70;;;23.90;92.10;;;;;;5088683;28;20092;-79
2021/06/29 06:57:33;;;;;;;11.00;9.38;;;24.00;92.00;;;;;;5089721;28;20521;-79
2021/06/29 06:59:58;;;;;;;16.20;9.63;;;24.00;91.70;;;;;;5089532;28;20105;-79
2021/06/29 07:02:24;;;;;;;18.63;10.20;;;24.00;92.10;;;;;;5089585;28;20066;-79
2021/06/29 07:04:49;;;;;;;12.40;9.98;;;24.00;93.20;;;;;;5089461;28;20024;-79
2021/06/29 07:07:15;;;;;;;9.55;8.05;;;24.00;92.70;;;;;;5089879;28;20016;-79
2021/06/29 07:09:40;;;;;;;12.57;9.63;;;24.00;92.80;;;;;;5089721;28;20051;-79
2021/06/29 07:12:06;;;;;;;10.75;9.30;;;24.00;93.90;;;;;;5089477;28;20538;-79
2021/06/29 07:14:32;;;;;;;11.40;9.15;;;24.00;93.60;;;;;;5089413;28;20020;-79
2021/06/29 07:16:57;;;;;;;12.50;10.10;;;24.00;93.30;;;;;;5089074;28;20038;-79
2021/06/29 07:19:23;;;;;;;11.43;9.25;;;24.00;92.20;;;;;;5089322;28;20089;-81
2021/06/29 07:21:48;;;;;;;11.80;9.93;;;24.10;92.10;;;;;;5089376;28;20673;-79
2021/06/29 07:24:14;;;;;;;13.10;9.90;;;24.30;91.60;;;;;;5089717;28;20023;-79
2021/06/29 07:26:39;;;;;;;11.88;9.43;;;24.50;91.70;;;;;;5089608;28;20645;-79
2021/06/29 07:29:05;;;;;;;13.00;8.60;;;24.70;90.50;;;;;;5089046;28;20031;-80
2021/06/29 07:31:31;;;;;;;12.57;9.43;;;24.90;90.50;;;;;;5089362;28;20494;-79
2021/06/29 07:33:57;;;;;;;10.60;8.95;;;25.10;90.50;;;;;;5089053;28;20028;-79
2021/06/29 07:36:22;;;;;;;10.43;7.95;;;25.20;91.10;;;;;;5089181;28;20035;-79
2021/06/29 07:38:48;;;;;;;11.10;9.50;;;25.30;90.30;;;;;;5072785;28;20033;-79
2021/06/29 07:41:14;;;;;;;12.45;9.05;;;25.40;92.00;;;;;;5068917;28;20028;-79
2021/06/29 07:43:40;;;;;;;10.18;9.00;;;25.40;90.60;;;;;;5068615;28;20052;-79
2021/06/29 07:46:06;;;;;;;7.13;6.10;;;25.50;89.00;;;;;;5068608;28;20056;-79
2021/06/29 07:48:32;;;;;;;10.52;9.02;;;25.60;84.50;;;;;;5068782;28;20024;-80
2021/06/29 07:50:58;;;;;;;8.15;6.97;;;25.60;90.50;;;;;;5068569;28;20364;-78
2021/06/29 07:53:23;;;;;;;9.38;6.85;;;25.60;89.20;;;;;;5069349;28;20043;-78
2021/06/29 07:55:50;;;;;;;7.80;7.00;;;25.60;90.00;;;;;;5069697;28;20020;-80
2021/06/29 07:58:19;;;;;;;12.20;8.90;;;25.60;88.20;;;;;;5075303;28;20428;-79
2021/06/29 08:00:45;;;;;;;13.80;8.82;;;25.60;92.10;;;;;;5088762;28;20024;-79
2021/06/29 08:03:11;;;;;;;8.00;7.10;;;25.70;91.20;;;;;;5088334;28;20051;-79
2021/06/29 08:05:37;;;;;;;9.73;7.57;;;25.90;86.10;;;;;;5088322;28;20642;-78
2021/06/29 08:08:05;;;;;;;9.68;7.85;;;26.00;89.10;;;;;;5088518;28;20058;-79
2021/06/29 08:10:31;;;;;;;7.30;6.53;;;26.20;84.20;;;;;;5088753;28;20027;-79
2021/06/29 08:12:57;;;;;;;7.85;6.88;;;26.40;81.40;;;;;;5088693;28;20032;-79
2021/06/29 08:15:22;;;;;;;11.70;6.28;;;26.40;80.80;;;;;;5088633;28;20364;-78
2021/06/29 08:17:48;;;;;;;11.65;8.32;;;26.50;83.20;;;;;;5088428;28;20395;-79
2021/06/29 08:20:16;;;;;;;10.68;8.32;;;26.70;79.90;;;;;;5078155;28;20107;-79
2021/06/29 08:22:41;;;;;;;9.02;7.47;;;26.70;76.40;;;;;;5071784;28;20041;-79
2021/06/29 08:25:08;;;;;;;7.78;6.97;;;26.70;79.60;;;;;;5088619;28;20696;-78
2021/06/29 08:27:33;;;;;;;5.80;5.20;;;26.70;79.50;;;;;;5088614;28;20085;-79
2021/06/29 08:29:59;;;;;;;12.23;7.53;;;26.70;78.70;;;;;;5088485;28;20418;-79
2021/06/29 08:32:25;;;;;;;7.30;6.43;;;26.70;76.20;;;;;;5088403;28;20379;-79
2021/06/29 08:34:51;;;;;;;6.00;5.40;;;26.70;76.00;;;;;;5088738;28;20526;-79
2021/06/29 08:37:17;;;;;;;5.90;5.30;;;26.70;80.00;;;;;;5088175;28;20115;-78
2021/06/29 08:39:43;;;;;;;6.93;5.70;;;26.60;74.20;;;;;;5088413;28;20028;-79
2021/06/29 08:42:10;;;;;;;6.63;5.10;;;26.60;75.90;;;;;;5088235;28;20021;-79
2021/06/29 08:44:35;;;;;;;8.70;5.38;;;26.60;75.10;;;;;;5088441;28;20405;-79
2021/06/29 08:47:01;;;;;;;6.45;4.68;;;26.60;75.40;;;;;;5088076;28;20017;-80
2021/06/29 08:49:26;;;;;;;11.73;7.03;;;26.60;73.70;;;;;;5088424;28;20477;-80
2021/06/29 08:51:52;;;;;;;8.95;6.70;;;26.80;73.80;;;;;;5088272;28;20420;-80
2021/06/29 08:54:21;;;;;;;11.02;7.63;;;27.00;70.80;;;;;;5088187;28;20024;-80
2021/06/29 08:56:46;;;;;;;9.27;7.45;;;27.20;70.50;;;;;;5088316;28;20024;-79
2021/06/29 08:59:12;;;;;;;5.93;5.32;;;27.30;71.30;;;;;;5088091;28;20063;-80
2021/06/29 09:01:37;;;;;;;10.10;7.18;;;27.40;70.60;;;;;;5088131;28;20047;-80
2021/06/29 09:04:03;;;;;;;9.50;6.43;;;27.60;69.60;;;;;;5088242;28;20022;-80
2021/06/29 09:06:39;;;;;;;9.52;6.93;;;27.60;67.90;;;;;;5087775;28;20016;-79
2021/06/29 09:09:27;;;;;;;7.78;5.70;;;27.80;66.90;;;;;;5087950;28;20044;-80
2021/06/29 09:11:55;;;;;;;9.63;7.15;;;27.80;66.50;;;;;;5088182;28;20390;-80
2021/06/29 09:14:28;;;;;;;9.10;6.32;;;27.80;65.90;;;;;;5088146;28;20028;-79
2021/06/29 09:17:13;;;;;;;7.18;5.90;;;27.90;67.40;;;;;;5088206;28;20453;-80
2021/06/29 09:19:39;;;;;;;8.68;5.15;;;27.80;66.50;;;;;;5091277;28;20035;-80
2021/06/29 09:22:24;;;;;;;5.30;4.80;;;27.60;67.70;;;;;;5091489;28;20020;-80
2021/06/29 09:24:50;;;;;;;5.20;4.70;;;27.40;66.80;;;;;;5091558;28;20028;-79
2021/06/29 09:27:42;;;;;;;6.13;4.60;;;27.30;67.60;;;;;;5091539;28;20363;-80
2021/06/29 09:30:26;;;;;;;7.40;5.20;;;27.30;67.50;;;;;;5091408;28;20367;-80
2021/06/29 09:32:52;;;;;;;5.57;5.00;;;27.20;69.40;;;;;;5091473;28;20078;-79
2021/06/29 09:35:18;;;;;;;7.97;7.10;;;27.20;69.20;;;;;;5091344;28;20036;-79
2021/06/29 09:37:47;;;;;;;9.35;6.20;;;27.40;68.80;;;;;;5091222;28;20182;-80
2021/06/29 09:40:15;;;;;;;5.40;4.90;;;27.50;67.70;;;;;;5091702;28;20031;-80
2021/06/29 09:42:40;;;;;;;7.80;5.90;;;27.60;67.40;;;;;;5091403;28;20387;-80
2021/06/29 09:45:34;;;;;;;4.88;4.20;;;27.60;67.30;;;;;;5091097;28;20024;-80
2021/06/29 09:48:00;;;;;;;8.63;6.05;;;27.70;67.10;;;;;;5091200;28;20024;-80
2021/06/29 09:50:45;;;;;;;8.23;6.30;;;27.70;65.10;;;;;;5091003;28;20081;-80
2021/06/29 09:53:21;;;;;;;5.53;5.03;;;27.70;65.60;;;;;;5091075;28;20103;-79
2021/06/29 09:55:49;;;;;;;10.23;6.88;;;27.70;65.70;;;;;;5091113;28;20028;-80
2021/06/29 09:58:16;;;;;;;7.30;6.43;;;27.70;66.20;;;;;;5090686;28;20035;-80
2021/06/29 10:00:52;;;;;;;7.68;6.40;;;27.70;64.10;;;;;;5091006;28;20027;-80
2021/06/29 10:03:21;;;;;;;4.65;4.20;;;27.70;64.90;;;;;;5090597;28;20062;-79
2021/06/29 10:05:47;;;;;;;5.13;4.32;;;27.60;66.20;;;;;;5090801;28;20073;-80
2021/06/29 10:08:23;;;;;;;8.02;6.55;;;27.60;66.10;;;;;;5090435;28;20059;-80
2021/06/29 10:11:22;;;;;;;4.75;4.28;;;27.60;68.30;;;;;;5090947;28;20052;-80
2021/06/29 10:13:54;;;;;;;4.43;4.00;;;27.60;65.80;;;;;;5090677;28;20111;-80
2021/06/29 10:16:22;;;;;;;6.93;5.97;;;27.60;66.80;;;;;;5090672;28;20036;-80
2021/06/29 10:18:54;;;;;;;9.88;7.35;;;27.50;70.10;;;;;;5080417;28;20029;-79
2021/06/29 10:21:22;;;;;;;4.30;3.95;;;27.50;70.30;;;;;;5070219;28;20143;-80
2021/06/29 10:23:50;;;;;;;6.47;5.65;;;27.50;67.00;;;;;;5070299;28;20543;-80
2021/06/29 10:26:15;;;;;;;10.15;6.35;;;27.40;68.20;;;;;;5088767;28;20260;-80
2021/06/29 10:28:43;;;;;;;8.88;6.80;;;27.70;67.20;;;;;;5090576;28;20189;-80
2021/06/29 10:31:14;;;;;;;7.38;6.57;;;28.00;65.20;;;;;;5090360;28;20382;-80
2021/06/29 10:33:40;;;;;;;7.25;6.13;;;28.50;61.20;;;;;;5090659;28;20032;-80
2021/06/29 10:36:06;;;;;;;7.97;4.55;;;28.90;64.60;;;;;;5090345;28;20024;-80
2021/06/29 10:38:32;;;;;;;5.85;3.90;;;29.20;61.20;;;;;;5090254;28;20024;-80
2021/06/29 10:40:58;;;;;;;5.65;4.88;;;29.10;59.90;;;;;;5090274;28;20021;-80
2021/06/29 10:43:24;;;;;;;7.45;5.00;;;28.90;60.40;;;;;;5090041;28;20016;-80
2021/06/29 10:45:52;;;;;;;8.07;7.03;;;28.90;62.60;;;;;;5090084;28;20231;-80
2021/06/29 10:48:19;;;;;;;13.80;7.93;;;29.00;62.40;;;;;;5089979;28;20039;-79
2021/06/29 10:50:46;;;;;;;8.88;7.15;;;28.90;62.60;;;;;;5090021;28;20067;-80
2021/06/29 10:53:32;;;;;;;4.85;4.35;;;29.00;60.60;;;;;;5089767;28;20035;-79
2021/06/29 10:55:58;;;;;;;4.43;3.97;;;28.70;62.70;;;;;;5089850;28;20031;-79
2021/06/29 10:58:41;;;;;;;5.13;4.63;;;28.40;62.00;;;;;;5089480;28;20081;-80
2021/06/29 11:01:33;;;;;;;8.77;7.38;;;28.00;63.50;;;;;;5089768;28;20020;-80
2021/06/29 11:04:01;;;;;;;5.75;5.25;;;27.90;67.10;;;;;;5089830;28;20413;-80
2021/06/29 11:06:32;;;;;;;6.72;6.07;;;27.90;64.60;;;;;;5089361;28;20024;-80
2021/06/29 11:08:59;;;;;;;8.40;5.97;;;27.90;64.10;;;;;;5089602;28;20040;-80
2021/06/29 11:11:26;;;;;;;4.40;4.00;;;27.90;63.10;;;;;;5089465;28;20028;-80
2021/06/29 11:13:52;;;;;;;10.35;7.47;;;27.80;63.70;;;;;;5089669;28;20020;-80
2021/06/29 11:16:38;;;;;;;9.98;7.80;;;27.70;64.10;;;;;;5089287;28;20493;-80
2021/06/29 11:19:03;;;;;;;9.82;7.53;;;27.60;65.40;;;;;;5089335;28;20025;-80
2021/06/29 11:21:35;;;;;;;8.45;7.47;;;27.60;63.40;;;;;;5089210;28;20330;-80
2021/06/29 11:24:20;;;;;;;13.45;8.40;;;27.50;64.00;;;;;;5089616;28;20039;-80
2021/06/29 11:26:46;;;;;;;21.13;9.38;;;27.40;65.50;;;;;;5078125;28;20111;-79
2021/06/29 11:29:11;;;;;;;19.75;11.20;;;27.20;79.20;;;;;;5089254;28;20465;-80
2021/06/29 11:31:37;;;;;;;14.73;10.13;;;26.80;86.80;;;;;;5089240;28;20032;-79
2021/06/29 11:34:12;;;;;;;17.30;10.55;;;26.40;90.00;;;;;;5089170;28;20024;-79
2021/06/29 11:36:45;;;;;;;14.38;11.27;;;26.00;93.80;;;;;;5089167;28;20020;-80
2021/06/29 11:39:17;;;;;;;18.48;10.88;;;25.70;98.10;;;;;;5088819;28;20112;-80
2021/06/29 11:42:10;;;;;;;13.20;9.13;;;25.40;99.90;;;;;;5088841;28;20050;-79
2021/06/29 11:44:42;;;;;;;8.40;6.65;;;25.20;99.90;;;;;;5078804;28;20185;-79
2021/06/29 11:47:11;;;;;;;7.55;5.70;;;25.00;98.30;;;;;;5087507;28;20085;-79
2021/06/29 11:49:42;;;;;;;6.47;5.68;;;24.80;96.10;;;;;;5089061;28;20012;-79
2021/06/29 11:52:14;;;;;;;5.95;5.18;;;24.70;96.30;;;;;;5088846;28;20028;-79
2021/06/29 11:54:44;;;;;;;9.40;5.72;;;24.60;99.90;;;;;;5078447;28;20016;-79
2021/06/29 11:57:15;;;;;;;7.70;5.72;;;24.70;99.90;;;;;;5068374;28;20418;-79
2021/06/29 11:59:41;;;;;;;6.60;5.75;;;24.90;99.90;;;;;;5087637;28;20374;-79
2021/06/29 12:02:09;;;;;;;7.38;5.53;;;25.20;99.90;;;;;;5088903;28;20028;-79
2021/06/29 12:04:36;;;;;;;6.75;5.82;;;25.50;99.90;;;;;;5088462;28;20032;-79
2021/06/29 12:07:04;;;;;;;7.32;6.00;;;25.70;99.90;;;;;;5088766;28;20021;-79
2021/06/29 12:09:34;;;;;;;6.93;5.85;;;26.10;99.90;;;;;;5088442;28;20491;-79
2021/06/29 12:12:24;;;;;;;10.60;6.45;;;26.50;99.90;;;;;;5088883;28;20093;-79
2021/06/29 12:15:13;;;;;;;6.88;5.75;;;27.20;99.90;;;;;;5088719;28;20101;-79
2021/06/29 12:17:48;;;;;;;8.35;6.03;;;28.00;99.90;;;;;;5088584;28;20024;-79
2021/06/29 12:20:15;;;;;;;6.05;5.50;;;28.40;99.90;;;;;;5088539;28;20390;-79
2021/06/29 12:22:43;;;;;;;7.45;5.55;;;28.50;99.90;;;;;;5088719;28;20027;-79
2021/06/29 12:25:17;;;;;;;6.10;5.55;;;28.50;99.50;;;;;;5088685;28;20231;-79
2021/06/29 12:27:44;;;;;;;5.40;4.90;;;28.60;97.60;;;;;;5088640;28;20131;-80
2021/06/29 12:30:33;;;;;;;7.60;4.78;;;28.60;92.70;;;;;;5088392;28;20501;-80
2021/06/29 12:33:00;;;;;;;5.22;4.70;;;28.40;90.70;;;;;;5088451;28;20032;-80
2021/06/29 12:35:30;;;;;;;8.25;5.28;;;28.20;94.70;;;;;;5088378;28;20161;-80
2021/06/29 12:38:04;;;;;;;5.43;4.90;;;27.90;97.40;;;;;;5088522;28;20032;-80
2021/06/29 12:40:34;;;;;;;6.03;5.53;;;27.60;93.80;;;;;;5088431;28;20323;-80
2021/06/29 12:43:15;;;;;;;10.13;6.25;;;27.50;97.70;;;;;;5088643;28;20028;-80
2021/06/29 12:45:41;;;;;;;12.02;6.10;;;27.40;99.90;;;;;;5088461;28;20023;-80